TimeCDT,TemperatureF,Dew PointF,Humidity,Sea Level PressureIn,VisibilityMPH,Wind Direction,Wind SpeedMPH,Gust SpeedMPH,PrecipitationIn,Events,Conditions,WindDirDegrees,DateUTC
12:15 AM,27.5,24.6,89,30.05,5.0,South,3.5,-,N/A,,Clear,170,2013-03-15 05:15:00
12:35 AM,27.5,25.2,91,30.03,7.0,South,4.6,-,N/A,,Clear,170,2013-03-15 05:35:00
12:55 AM,27.5,24.8,90,30.03,7.0,Calm,Calm,-,N/A,,Clear,0,2013-03-15 05:55:00
1:15 AM,28.6,26.1,90,30.02,5.0,SW,3.5,-,N/A,,Clear,220,2013-03-15 06:15:00
1:35 AM,27.5,25.3,92,30.02,5.0,Calm,Calm,-,N/A,,Clear,0,2013-03-15 06:35:00
1:55 AM,27.5,25.3,92,30.02,5.0,West,3.5,-,N/A,,Clear,270,2013-03-15 06:55:00
2:15 AM,27.5,25.5,92,30.03,5.0,WNW,5.8,-,N/A,,Clear,290,2013-03-15 07:15:00
2:35 AM,28.8,26.4,91,30.03,7.0,West,4.6,-,N/A,,Clear,280,2013-03-15 07:35:00
2:55 AM,28.9,26.1,89,30.01,7.0,Calm,Calm,-,N/A,,Clear,0,2013-03-15 07:55:00
3:15 AM,28.2,25.3,89,30.01,5.0,Calm,Calm,-,N/A,,Clear,0,2013-03-15 08:15:00
3:35 AM,27.7,25.2,90,29.99,5.0,Calm,Calm,-,N/A,,Clear,0,2013-03-15 08:35:00
3:55 AM,28.8,26.4,91,29.98,7.0,Calm,Calm,-,N/A,,Clear,0,2013-03-15 08:55:00
4:15 AM,28.6,25.7,89,29.97,5.0,Calm,Calm,-,N/A,,Clear,0,2013-03-15 09:15:00
4:35 AM,28.2,25.3,89,29.96,5.0,Calm,Calm,-,N/A,,Clear,0,2013-03-15 09:35:00
4:55 AM,27.5,25.0,90,29.96,5.0,Calm,Calm,-,N/A,,Clear,0,2013-03-15 09:55:00
5:15 AM,27.5,25.3,92,29.96,4.0,Calm,Calm,-,N/A,,Clear,0,2013-03-15 10:15:00
5:35 AM,27.5,25.5,92,29.97,3.0,North,4.6,-,N/A,,Mist,350,2013-03-15 10:35:00
5:55 AM,27.5,25.7,93,29.97,4.0,North,4.6,-,N/A,,Clear,350,2013-03-15 10:55:00
6:15 AM,27.5,25.7,93,29.97,4.0,North,3.5,-,N/A,,Clear,350,2013-03-15 11:15:00
6:35 AM,27.5,25.7,93,29.97,4.0,Calm,Calm,-,N/A,,Clear,0,2013-03-15 11:35:00
6:55 AM,27.5,25.7,93,29.97,5.0,Calm,Calm,-,N/A,,Clear,0,2013-03-15 11:55:00
7:15 AM,28.9,26.4,90,29.97,5.0,Calm,Calm,-,N/A,,Clear,0,2013-03-15 12:15:00
7:35 AM,28.9,26.2,90,29.96,5.0,Calm,Calm,-,N/A,,Clear,0,2013-03-15 12:35:00
7:55 AM,30.2,27.3,89,29.96,4.0,Calm,Calm,-,N/A,,Clear,0,2013-03-15 12:55:00
8:15 AM,30.2,27.1,88,29.94,4.0,Calm,Calm,-,N/A,,Clear,0,2013-03-15 13:15:00
8:35 AM,30.2,27.1,88,29.93,4.0,Calm,Calm,-,N/A,,Clear,0,2013-03-15 13:35:00
8:55 AM,30.9,27.9,88,29.91,3.0,SSE,3.5,-,N/A,,Mist,160,2013-03-15 13:55:00
9:15 AM,32.4,29.7,90,29.91,4.0,SE,3.5,-,N/A,,Clear,130,2013-03-15 14:15:00
9:35 AM,32.4,29.1,88,29.92,4.0,Calm,Calm,-,N/A,,Clear,0,2013-03-15 14:35:00
10:55 AM,34.9,29.8,82,29.90,5.0,South,3.5,-,N/A,,Haze,170,2013-03-15 15:55:00
11:15 AM,34.9,30.0,82,29.90,5.0,SE,3.5,-,N/A,,Haze,130,2013-03-15 16:15:00
11:35 AM,37.4,31.3,79,29.89,7.0,East,4.6,-,N/A,,Clear,100,2013-03-15 16:35:00
11:55 AM,37.4,31.1,78,29.89,7.0,SE,3.5,-,N/A,,Clear,130,2013-03-15 16:55:00
12:15 PM,38.5,31.1,75,29.88,7.0,East,6.9,-,N/A,,Clear,100,2013-03-15 17:15:00
12:35 PM,39.6,31.6,73,29.87,7.0,East,6.9,-,N/A,,Clear,100,2013-03-15 17:35:00
12:55 PM,40.1,31.6,72,29.87,7.0,ESE,8.1,-,N/A,,Clear,110,2013-03-15 17:55:00
1:15 PM,40.1,31.3,71,29.86,7.0,ESE,8.1,-,N/A,,Clear,110,2013-03-15 18:15:00
1:35 PM,40.1,32.0,73,29.84,7.0,East,10.4,-,N/A,,Clear,100,2013-03-15 18:35:00
1:55 PM,40.1,32.0,73,29.83,7.0,ESE,11.5,-,N/A,,Clear,120,2013-03-15 18:55:00
2:15 PM,39.2,32.0,75,29.84,7.0,East,8.1,-,N/A,,Clear,100,2013-03-15 19:15:00
2:35 PM,40.1,32.2,73,29.82,7.0,East,9.2,-,N/A,,Clear,90,2013-03-15 19:35:00
2:55 PM,40.1,31.8,72,29.81,7.0,ESE,10.4,-,N/A,,Clear,110,2013-03-15 19:55:00
3:15 PM,40.1,32.4,74,29.77,7.0,ESE,15.0,-,N/A,,Clear,120,2013-03-15 20:15:00
3:35 PM,40.1,32.4,74,29.76,7.0,SE,13.8,-,N/A,,Clear,130,2013-03-15 20:35:00
3:55 PM,40.6,32.4,72,29.75,7.0,ESE,10.4,-,N/A,,Clear,120,2013-03-15 20:55:00
4:15 PM,40.6,32.4,72,29.76,10.0,ESE,5.8,-,N/A,,Clear,120,2013-03-15 21:15:00
4:35 PM,41.4,32.2,70,29.78,10.0,East,5.8,-,N/A,,Clear,80,2013-03-15 21:35:00
4:55 PM,42.6,32.9,68,29.79,10.0,ENE,4.6,-,N/A,,Clear,70,2013-03-15 21:55:00
5:15 PM,43.2,33.6,69,29.79,10.0,ENE,5.8,-,N/A,,Clear,60,2013-03-15 22:15:00
5:35 PM,42.4,33.3,70,29.79,10.0,ENE,6.9,-,N/A,,Clear,60,2013-03-15 22:35:00
5:55 PM,41.0,32.7,72,29.79,7.0,ENE,9.2,-,N/A,,Clear,60,2013-03-15 22:55:00
6:15 PM,40.1,32.9,75,29.78,7.0,ENE,8.1,-,N/A,,Clear,60,2013-03-15 23:15:00
6:35 PM,38.7,32.5,79,29.77,7.0,ENE,8.1,-,N/A,,Clear,60,2013-03-15 23:35:00
6:55 PM,37.4,32.0,81,29.77,7.0,ENE,10.4,-,N/A,,Clear,60,2013-03-15 23:55:00
7:15 PM,37.4,32.0,81,29.77,7.0,NE,10.4,-,N/A,,Clear,50,2013-03-16 00:15:00
7:35 PM,34.9,30.7,85,29.77,7.0,ENE,9.2,-,N/A,,Clear,60,2013-03-16 00:35:00
7:55 PM,34.9,30.7,85,29.76,5.0,East,9.2,-,N/A,,Clear,90,2013-03-16 00:55:00
8:15 PM,34.9,30.9,85,29.75,5.0,East,9.2,-,N/A,,Clear,100,2013-03-16 01:15:00
8:35 PM,33.8,30.0,86,29.75,5.0,East,6.9,-,N/A,,Clear,90,2013-03-16 01:35:00
8:55 PM,32.4,28.9,87,29.75,5.0,East,5.8,-,N/A,,Clear,90,2013-03-16 01:55:00
9:15 PM,32.4,29.3,88,29.75,5.0,East,4.6,-,N/A,,Clear,100,2013-03-16 02:15:00
9:35 PM,32.4,29.3,88,29.76,5.0,East,4.6,-,N/A,,Clear,90,2013-03-16 02:35:00
9:55 PM,32.4,29.7,90,29.77,4.0,NNE,4.6,-,N/A,,Clear,30,2013-03-16 02:55:00
10:15 PM,32.4,29.8,90,29.78,4.0,NNE,5.8,-,N/A,,Mostly Cloudy,30,2013-03-16 03:15:00
10:35 PM,32.4,29.8,90,29.78,4.0,NE,5.8,-,N/A,,Mostly Cloudy,40,2013-03-16 03:35:00
10:55 PM,32.4,30.0,91,29.77,3.0,NE,3.5,-,N/A,,Mist,50,2013-03-16 03:55:00
11:15 PM,32.4,30.2,92,29.79,3.0,North,3.5,-,N/A,,Mist,350,2013-03-16 04:15:00
11:35 PM,31.5,29.3,92,29.79,2.5,North,5.8,-,N/A,,Mist,360,2013-03-16 04:35:00
11:55 PM,32.0,29.8,92,29.79,3.0,North,5.8,-,N/A,,Overcast,360,2013-03-16 04:55:00